createdAt,value
2023-05-10T00:01:19.421Z,16.70
2023-05-10T00:03:47.395Z,16.80
2023-05-10T00:06:15.267Z,16.70
2023-05-10T00:08:43.252Z,16.70
2023-05-10T00:11:11.040Z,16.70
2023-05-10T00:13:38.844Z,16.70
2023-05-10T00:16:07.350Z,16.60
2023-05-10T00:18:36.504Z,16.70
2023-05-10T00:21:04.453Z,16.60
2023-05-10T00:23:32.253Z,16.60
2023-05-10T00:26:00.005Z,16.50
2023-05-10T00:28:29.480Z,16.50
2023-05-10T00:30:57.993Z,16.50
2023-05-10T00:33:25.764Z,16.50
2023-05-10T00:35:54.886Z,16.50
2023-05-10T00:38:22.653Z,16.40
2023-05-10T00:40:50.793Z,16.50
2023-05-10T00:43:18.831Z,16.40
2023-05-10T00:45:47.060Z,16.40
2023-05-10T00:48:15.452Z,16.40
2023-05-10T00:50:43.366Z,16.30
2023-05-10T00:53:12.616Z,16.40
2023-05-10T00:55:40.517Z,16.30
2023-05-10T00:58:08.503Z,16.30
2023-05-10T01:00:38.298Z,16.30
2023-05-10T01:03:06.284Z,16.30
2023-05-10T01:05:34.119Z,16.20
2023-05-10T01:08:01.895Z,16.20
2023-05-10T01:10:31.701Z,16.20
2023-05-10T01:13:01.366Z,16.10
2023-05-10T01:15:29.454Z,16.10
2023-05-10T01:17:58.423Z,16.10
2023-05-10T01:20:27.067Z,16.10
2023-05-10T01:23:32.838Z,16.20
2023-05-10T01:26:35.355Z,16.10
2023-05-10T01:29:20.790Z,16.10
2023-05-10T01:32:17.449Z,16.00
2023-05-10T01:34:53.014Z,16.00
2023-05-10T01:37:26.325Z,16.00
2023-05-10T01:40:02.171Z,16.00
2023-05-10T01:42:38.494Z,16.00
2023-05-10T01:45:15.365Z,15.90
2023-05-10T01:47:48.496Z,15.90
2023-05-10T01:50:21.743Z,16.10
2023-05-10T01:52:53.886Z,15.90
2023-05-10T01:55:25.016Z,15.90
2023-05-10T01:57:59.411Z,15.90
2023-05-10T02:00:28.121Z,15.80
2023-05-10T02:02:58.100Z,15.80
2023-05-10T02:05:26.936Z,15.80
2023-05-10T02:07:54.930Z,15.70
2023-05-10T02:10:23.011Z,15.70
2023-05-10T02:12:52.078Z,15.70
2023-05-10T02:15:24.607Z,15.70
2023-05-10T02:17:54.431Z,15.70
2023-05-10T02:20:25.284Z,15.60
2023-05-10T02:22:55.778Z,15.60
2023-05-10T02:25:25.445Z,15.70
2023-05-10T02:27:56.109Z,15.60
2023-05-10T02:30:25.492Z,15.60
2023-05-10T02:32:54.203Z,15.60
2023-05-10T02:35:25.361Z,15.60
2023-05-10T02:37:54.348Z,15.50
2023-05-10T02:40:23.267Z,15.50
2023-05-10T02:42:54.523Z,15.50
2023-05-10T02:45:27.114Z,15.50
2023-05-10T02:47:58.224Z,15.40
2023-05-10T02:50:29.831Z,15.40
2023-05-10T02:53:04.035Z,15.40
2023-05-10T02:55:38.823Z,15.40
2023-05-10T02:58:06.815Z,15.40
2023-05-10T03:00:34.702Z,15.40
2023-05-10T03:03:02.523Z,15.40
2023-05-10T03:05:31.844Z,15.40
2023-05-10T03:07:59.770Z,15.40
2023-05-10T03:10:30.661Z,15.40
2023-05-10T03:13:12.700Z,15.40
2023-05-10T03:15:48.293Z,15.40
2023-05-10T03:18:20.351Z,15.40
2023-05-10T03:20:51.776Z,15.40
2023-05-10T03:23:28.726Z,15.40
2023-05-10T03:25:56.910Z,15.30
2023-05-10T03:28:27.840Z,15.30
2023-05-10T03:30:56.567Z,15.30
2023-05-10T03:33:24.522Z,15.30
2023-05-10T03:35:53.636Z,15.30
2023-05-10T03:38:21.408Z,15.30
2023-05-10T03:40:49.230Z,15.30
2023-05-10T03:43:17.033Z,15.30
2023-05-10T03:45:44.822Z,15.20
2023-05-10T03:48:14.521Z,15.20
2023-05-10T03:50:42.351Z,15.20
2023-05-10T03:53:11.455Z,15.20
2023-05-10T03:55:39.216Z,15.20
2023-05-10T03:58:07.044Z,15.20
2023-05-10T04:00:35.078Z,15.20
2023-05-10T04:03:02.963Z,15.20
2023-05-10T04:05:30.998Z,15.20
2023-05-10T04:07:59.868Z,15.20
2023-05-10T04:10:29.037Z,15.20
2023-05-10T04:12:56.869Z,15.20
2023-05-10T04:15:24.715Z,15.00
2023-05-10T04:17:52.587Z,15.20
2023-05-10T04:20:20.607Z,15.20
2023-05-10T04:22:48.344Z,15.20
2023-05-10T04:25:16.151Z,15.10
2023-05-10T04:27:45.224Z,15.10
2023-05-10T04:30:13.545Z,15.10
2023-05-10T04:32:41.384Z,15.00
2023-05-10T04:35:11.003Z,15.20
2023-05-10T04:37:38.751Z,15.10
2023-05-10T04:40:07.921Z,15.00
2023-05-10T04:42:35.699Z,15.10
2023-05-10T04:45:05.353Z,15.00
2023-05-10T04:47:33.520Z,15.00
2023-05-10T04:50:01.713Z,15.00
2023-05-10T04:52:29.526Z,15.00
2023-05-10T04:54:57.424Z,15.10
2023-05-10T04:57:25.389Z,15.00
2023-05-10T04:59:53.408Z,14.90
2023-05-10T05:02:22.754Z,14.90
2023-05-10T05:04:50.514Z,15.00
2023-05-10T05:07:18.360Z,14.90
2023-05-10T05:09:46.184Z,14.80
2023-05-10T05:12:15.119Z,14.80
2023-05-10T05:14:43.206Z,14.80
2023-05-10T05:17:10.978Z,14.90
2023-05-10T05:19:40.175Z,14.80
2023-05-10T05:22:08.980Z,14.80
2023-05-10T05:24:38.355Z,14.80
2023-05-10T05:27:06.603Z,14.50
2023-05-10T05:29:34.627Z,14.50
2023-05-10T05:32:02.627Z,14.30
2023-05-10T05:34:30.431Z,14.50
2023-05-10T05:36:59.512Z,14.40
2023-05-10T05:39:27.294Z,14.60
2023-05-10T05:41:55.034Z,14.10
2023-05-10T05:44:22.803Z,14.40
2023-05-10T05:46:50.656Z,14.30
2023-05-10T05:49:18.436Z,14.50
2023-05-10T05:51:46.761Z,14.70
2023-05-10T05:54:15.851Z,14.80
2023-05-10T05:56:45.092Z,14.80
2023-05-10T05:59:13.035Z,14.90
2023-05-10T06:01:40.973Z,14.80
2023-05-10T06:04:08.830Z,14.80
2023-05-10T06:06:37.107Z,14.80
2023-05-10T06:09:05.036Z,14.90
2023-05-10T06:11:34.209Z,14.90
2023-05-10T06:14:02.574Z,14.90
2023-05-10T06:16:30.359Z,14.80
2023-05-10T06:18:58.136Z,14.90
2023-05-10T06:21:26.408Z,14.90
2023-05-10T06:23:54.206Z,14.80
2023-05-10T06:26:22.527Z,14.80
2023-05-10T06:28:51.634Z,14.70
2023-05-10T06:31:19.507Z,14.60
2023-05-10T06:33:47.301Z,14.70
2023-05-10T06:36:15.360Z,14.80
2023-05-10T06:38:43.153Z,14.90
2023-05-10T06:41:10.936Z,15.00
2023-05-10T06:43:40.830Z,14.90
2023-05-10T06:46:10.189Z,14.80
2023-05-10T06:48:38.006Z,14.80
2023-05-10T06:51:05.904Z,14.80
2023-05-10T06:53:33.757Z,14.80
2023-05-10T06:56:01.616Z,15.00
2023-05-10T06:58:29.430Z,14.90
2023-05-10T07:01:03.594Z,14.80
2023-05-10T07:03:33.334Z,14.90
2023-05-10T07:06:05.154Z,14.90
2023-05-10T07:08:33.035Z,15.20
2023-05-10T07:11:05.272Z,15.30
2023-05-10T07:13:33.362Z,15.70
2023-05-10T07:16:01.389Z,16.30
2023-05-10T07:18:29.713Z,16.80
2023-05-10T07:20:59.297Z,16.70
2023-05-10T07:23:27.104Z,16.50
2023-05-10T07:25:55.099Z,15.80
2023-05-10T07:28:22.916Z,15.50
2023-05-10T07:30:50.731Z,15.50
2023-05-10T07:33:18.539Z,16.20
2023-05-10T07:35:46.408Z,16.00
2023-05-10T07:38:15.540Z,16.30
2023-05-10T07:40:43.321Z,16.20
2023-05-10T07:43:11.230Z,16.10
2023-05-10T07:45:39.134Z,16.00
2023-05-10T07:48:07.154Z,15.90
2023-05-10T07:50:35.041Z,15.70
2023-05-10T07:53:02.779Z,15.70
2023-05-10T07:55:31.906Z,15.70
2023-05-10T07:58:01.896Z,15.60
2023-05-10T08:00:29.702Z,15.70
2023-05-10T08:02:57.538Z,15.90
2023-05-10T08:05:25.371Z,16.10
2023-05-10T08:07:53.149Z,16.00
2023-05-10T08:10:21.000Z,16.20
2023-05-10T08:12:50.147Z,16.50
2023-05-10T08:15:18.097Z,16.50
2023-05-10T08:17:46.048Z,16.60
2023-05-10T08:20:17.578Z,16.70
2023-05-10T08:22:45.495Z,16.40
2023-05-10T08:25:13.575Z,16.10
2023-05-10T08:27:41.466Z,15.80
2023-05-10T08:30:11.930Z,15.40
2023-05-10T08:32:39.949Z,15.70
2023-05-10T08:35:08.055Z,15.80
2023-05-10T08:37:35.841Z,15.80
2023-05-10T08:40:04.177Z,15.80
2023-05-10T08:42:36.955Z,15.90
2023-05-10T08:45:06.524Z,16.00
2023-05-10T08:47:37.087Z,16.20
2023-05-10T08:50:05.312Z,16.00
2023-05-10T08:52:39.881Z,16.10
2023-05-10T08:55:08.142Z,16.30
2023-05-10T08:57:35.916Z,16.40
2023-05-10T09:00:04.854Z,17.40
2023-05-10T09:02:33.042Z,17.40
2023-05-10T09:05:02.385Z,17.60
2023-05-10T09:07:30.399Z,17.30
2023-05-10T09:09:58.998Z,17.00
2023-05-10T09:12:26.881Z,16.90
2023-05-10T09:14:56.151Z,16.70
2023-05-10T09:17:25.477Z,16.40
2023-05-10T09:19:59.591Z,16.20
2023-05-10T09:22:28.910Z,16.20
2023-05-10T09:25:07.569Z,16.20
2023-05-10T09:27:35.376Z,16.10
2023-05-10T09:30:03.242Z,16.10
2023-05-10T09:32:41.543Z,16.10
2023-05-10T09:35:11.006Z,16.10
2023-05-10T09:37:42.615Z,17.60
2023-05-10T09:40:14.582Z,18.10
2023-05-10T09:42:43.802Z,18.00
2023-05-10T09:45:11.946Z,17.90
2023-05-10T09:47:39.957Z,18.40
2023-05-10T09:50:08.801Z,18.30
2023-05-10T09:52:51.182Z,18.30
2023-05-10T09:55:20.764Z,18.10
2023-05-10T09:57:49.224Z,17.60
2023-05-10T10:00:21.568Z,17.40
2023-05-10T10:02:56.104Z,17.90
2023-05-10T10:05:30.296Z,17.60
2023-05-10T10:08:00.520Z,17.40
2023-05-10T10:10:29.169Z,17.50
2023-05-10T10:12:57.540Z,17.50
2023-05-10T10:15:26.379Z,17.40
2023-05-10T10:17:55.338Z,17.30
2023-05-10T10:20:24.928Z,17.90
2023-05-10T10:22:52.775Z,18.30
2023-05-10T10:25:23.626Z,18.50
2023-05-10T10:28:14.735Z,18.40
2023-05-10T10:30:44.869Z,18.00
2023-05-10T10:33:40.803Z,18.30
2023-05-10T10:36:09.508Z,18.40
2023-05-10T10:39:01.527Z,18.10
2023-05-10T10:41:33.467Z,17.50
2023-05-10T10:44:24.750Z,17.60
2023-05-10T10:47:09.163Z,17.30
2023-05-10T10:49:43.916Z,17.40
2023-05-10T10:52:29.068Z,17.50
2023-05-10T10:55:02.378Z,17.50
2023-05-10T10:57:34.212Z,17.50
2023-05-10T11:00:21.708Z,17.50
2023-05-10T11:02:52.397Z,17.50
2023-05-10T11:05:38.675Z,17.40
2023-05-10T11:08:18.124Z,17.30
2023-05-10T11:11:04.791Z,17.40
2023-05-10T11:13:35.781Z,17.60
2023-05-10T11:16:18.254Z,17.60
2023-05-10T11:19:04.586Z,17.20
2023-05-10T11:21:33.378Z,16.90
2023-05-10T11:24:02.037Z,16.90
2023-05-10T11:26:34.000Z,16.80
2023-05-10T11:29:05.339Z,16.80
2023-05-10T11:31:33.166Z,16.60
2023-05-10T11:34:02.815Z,16.70
2023-05-10T11:36:34.645Z,16.70
2023-05-10T11:39:02.478Z,16.80
2023-05-10T11:41:32.166Z,16.80
2023-05-10T11:44:00.631Z,16.70
2023-05-10T11:46:30.466Z,16.70
2023-05-10T11:49:02.444Z,16.60
2023-05-10T11:51:30.324Z,16.70
2023-05-10T11:53:59.227Z,16.70
2023-05-10T11:56:27.984Z,16.70
2023-05-10T11:58:58.009Z,16.70
2023-05-10T12:01:26.915Z,16.70
2023-05-10T12:03:59.556Z,16.70
2023-05-10T12:06:29.479Z,16.70
2023-05-10T12:08:57.336Z,16.60
2023-05-10T12:11:28.040Z,16.60
2023-05-10T12:13:57.112Z,16.60
2023-05-10T12:16:26.613Z,16.50
2023-05-10T12:18:57.773Z,16.60
2023-05-10T12:21:25.666Z,16.50
2023-05-10T12:23:55.071Z,16.50
2023-05-10T12:26:24.129Z,16.50
2023-05-10T12:28:51.902Z,16.30
2023-05-10T12:31:19.719Z,16.30
2023-05-10T12:33:48.301Z,16.40
2023-05-10T12:36:18.852Z,16.20
2023-05-10T12:38:48.864Z,16.10
2023-05-10T12:41:19.516Z,16.40
2023-05-10T12:43:47.662Z,16.00
2023-05-10T12:46:17.046Z,15.90
2023-05-10T12:48:46.240Z,16.20
2023-05-10T12:51:16.532Z,16.20
2023-05-10T12:53:48.707Z,16.40
2023-05-10T12:56:17.375Z,16.40
2023-05-10T12:58:48.808Z,16.20
2023-05-10T13:01:16.921Z,16.30
2023-05-10T13:03:44.990Z,16.40
2023-05-10T13:06:14.295Z,16.40
2023-05-10T13:08:42.093Z,16.40
2023-05-10T13:11:11.384Z,16.40
2023-05-10T13:13:39.177Z,16.40
2023-05-10T13:16:07.707Z,16.40
2023-05-10T13:18:35.571Z,16.40
2023-05-10T13:21:04.816Z,16.40
2023-05-10T13:23:32.623Z,16.30
2023-05-10T13:26:00.393Z,16.30
2023-05-10T13:28:29.903Z,16.30
2023-05-10T13:30:57.739Z,16.30
2023-05-10T13:33:25.667Z,16.30
2023-05-10T13:35:55.532Z,16.30
2023-05-10T13:38:23.640Z,15.90
2023-05-10T13:40:53.515Z,16.00
2023-05-10T13:43:21.540Z,16.10
2023-05-10T13:45:50.665Z,16.10
2023-05-10T13:48:18.423Z,16.10
2023-05-10T13:50:46.157Z,16.10
2023-05-10T13:53:14.073Z,16.10
2023-05-10T13:55:41.809Z,16.10
2023-05-10T13:58:09.542Z,16.10
2023-05-10T14:00:37.375Z,16.10
2023-05-10T14:03:07.330Z,16.00
2023-05-10T14:05:35.205Z,16.10
2023-05-10T14:08:02.972Z,16.10
2023-05-10T14:10:30.935Z,16.00
2023-05-10T14:12:58.718Z,16.00
2023-05-10T14:15:26.862Z,16.00
2023-05-10T14:17:54.741Z,16.00
2023-05-10T14:20:23.956Z,16.00
2023-05-10T14:22:51.716Z,15.90
2023-05-10T14:25:20.189Z,15.90
2023-05-10T14:27:48.264Z,15.80
2023-05-10T14:30:16.922Z,15.80
2023-05-10T14:32:44.828Z,15.80
2023-05-10T14:35:14.421Z,15.70
2023-05-10T14:37:44.768Z,15.70
2023-05-10T14:40:13.573Z,15.60
2023-05-10T14:42:41.340Z,15.60
2023-05-10T14:45:10.469Z,15.60
2023-05-10T14:47:38.313Z,15.60
2023-05-10T14:50:07.122Z,15.50
2023-05-10T14:52:35.332Z,15.50
2023-05-10T14:55:04.780Z,15.50
2023-05-10T14:57:33.216Z,15.50
2023-05-10T15:00:01.006Z,15.50
2023-05-10T15:02:29.263Z,15.50
2023-05-10T15:04:58.336Z,15.50
2023-05-10T15:07:26.865Z,15.50
2023-05-10T15:09:55.060Z,15.50
2023-05-10T15:12:24.183Z,15.50
2023-05-10T15:14:51.957Z,15.50
2023-05-10T15:17:19.756Z,15.50
2023-05-10T15:19:47.519Z,15.50
2023-05-10T15:22:15.421Z,15.50
2023-05-10T15:24:43.206Z,15.50
2023-05-10T15:27:10.992Z,15.50
2023-05-10T15:29:40.111Z,15.50
2023-05-10T15:32:07.916Z,15.40
2023-05-10T15:34:37.021Z,15.40
2023-05-10T15:37:04.930Z,15.40
2023-05-10T15:39:32.704Z,15.40
2023-05-10T15:42:00.490Z,15.40
2023-05-10T15:44:28.288Z,15.30
2023-05-10T15:46:57.599Z,15.30
2023-05-10T15:49:25.546Z,15.30
2023-05-10T15:51:53.426Z,15.20
2023-05-10T15:54:21.227Z,15.20
2023-05-10T15:56:49.165Z,15.20
2023-05-10T15:59:16.957Z,15.20
2023-05-10T16:01:44.818Z,15.00
2023-05-10T16:04:13.948Z,15.10
2023-05-10T16:06:41.756Z,15.10
2023-05-10T16:09:10.524Z,14.90
2023-05-10T16:11:38.430Z,14.50
2023-05-10T16:14:07.337Z,14.60
2023-05-10T16:16:35.684Z,14.70
2023-05-10T16:19:03.723Z,14.80
2023-05-10T16:21:33.337Z,14.70
2023-05-10T16:24:01.932Z,14.90
2023-05-10T16:26:29.694Z,14.90
2023-05-10T16:28:57.408Z,14.90
2023-05-10T16:31:25.887Z,14.90
2023-05-10T16:33:53.843Z,14.80
2023-05-10T16:36:21.612Z,14.90
2023-05-10T16:38:51.186Z,14.90
2023-05-10T16:41:18.963Z,14.80
2023-05-10T16:43:46.715Z,14.80
2023-05-10T16:46:14.624Z,14.80
2023-05-10T16:48:42.422Z,14.80
2023-05-10T16:51:10.332Z,14.80
2023-05-10T16:53:38.200Z,14.80
2023-05-10T16:56:07.939Z,14.70
2023-05-10T16:58:35.742Z,14.70
2023-05-10T17:01:03.628Z,14.60
2023-05-10T17:03:31.541Z,14.70
2023-05-10T17:05:59.789Z,14.80
2023-05-10T17:08:27.669Z,14.50
2023-05-10T17:10:56.201Z,14.60
2023-05-10T17:13:25.355Z,14.50
2023-05-10T17:15:53.402Z,14.60
2023-05-10T17:18:21.259Z,14.60
2023-05-10T17:20:49.140Z,14.70
2023-05-10T17:23:17.204Z,14.60
2023-05-10T17:25:44.970Z,14.40
2023-05-10T17:28:12.854Z,14.50
2023-05-10T17:30:42.035Z,14.60
2023-05-10T17:33:09.810Z,14.60
2023-05-10T17:35:37.605Z,14.60
2023-05-10T17:38:05.376Z,14.50
2023-05-10T17:40:33.129Z,14.40
2023-05-10T17:43:01.207Z,14.50
2023-05-10T17:45:29.025Z,14.50
2023-05-10T17:47:58.277Z,14.40
2023-05-10T17:50:26.050Z,14.50
2023-05-10T17:52:53.806Z,14.40
2023-05-10T17:55:22.117Z,14.40
2023-05-10T17:57:51.821Z,14.40
2023-05-10T18:00:20.160Z,14.40
2023-05-10T18:02:47.914Z,14.40
2023-05-10T18:05:17.770Z,14.40
2023-05-10T18:07:45.773Z,14.30
2023-05-10T18:10:13.555Z,14.30
2023-05-10T18:12:41.478Z,14.30
2023-05-10T18:15:10.049Z,14.30
2023-05-10T18:17:37.875Z,14.30
2023-05-10T18:20:07.268Z,14.30
2023-05-10T18:22:37.075Z,14.30
2023-05-10T18:25:05.509Z,14.20
2023-05-10T18:27:33.504Z,14.20
2023-05-10T18:30:01.266Z,14.20
2023-05-10T18:32:29.016Z,14.20
2023-05-10T18:34:58.028Z,14.20
2023-05-10T18:37:26.241Z,14.20
2023-05-10T18:39:55.451Z,14.20
2023-05-10T18:42:23.244Z,14.20
2023-05-10T18:44:50.998Z,14.10
2023-05-10T18:47:18.943Z,14.20
2023-05-10T18:49:46.976Z,14.20
2023-05-10T18:52:16.064Z,14.20
2023-05-10T18:54:43.853Z,14.10
2023-05-10T18:57:13.700Z,14.10
2023-05-10T18:59:41.527Z,14.20
2023-05-10T19:02:09.556Z,14.20
2023-05-10T19:04:37.509Z,14.10
2023-05-10T19:07:05.486Z,14.10
2023-05-10T19:09:33.242Z,14.10
2023-05-10T19:12:01.059Z,14.00
2023-05-10T19:14:30.390Z,14.00
2023-05-10T19:16:58.491Z,14.00
2023-05-10T19:19:27.372Z,14.00
2023-05-10T19:21:55.763Z,13.90
2023-05-10T19:24:25.427Z,13.90
2023-05-10T19:26:53.289Z,13.90
2023-05-10T19:29:21.056Z,13.80
2023-05-10T19:31:52.287Z,13.80
2023-05-10T19:34:20.437Z,13.70
2023-05-10T19:36:48.218Z,13.70
2023-05-10T19:39:16.254Z,13.80
2023-05-10T19:41:44.198Z,13.80
2023-05-10T19:44:12.040Z,13.70
2023-05-10T19:46:39.891Z,13.60
2023-05-10T19:49:09.033Z,13.60
2023-05-10T19:51:36.837Z,13.60
2023-05-10T19:54:04.740Z,13.60
2023-05-10T19:56:32.509Z,13.60
2023-05-10T19:59:02.858Z,13.50
2023-05-10T20:01:32.587Z,13.60
2023-05-10T20:04:00.503Z,13.50
2023-05-10T20:06:29.672Z,13.50
2023-05-10T20:08:57.439Z,13.50
2023-05-10T20:11:25.222Z,13.50
2023-05-10T20:13:53.077Z,13.50
2023-05-10T20:16:21.033Z,13.40
2023-05-10T20:18:48.838Z,13.40
2023-05-10T20:21:16.632Z,13.40
2023-05-10T20:23:45.741Z,13.30
2023-05-10T20:26:13.642Z,13.40
2023-05-10T20:28:42.098Z,13.30
2023-05-10T20:31:10.001Z,13.30
2023-05-10T20:33:37.761Z,13.30
2023-05-10T20:36:05.954Z,13.30
2023-05-10T20:38:33.726Z,13.30
2023-05-10T20:41:02.793Z,13.30
2023-05-10T20:43:30.691Z,13.20
2023-05-10T20:46:04.935Z,13.20
2023-05-10T20:48:33.848Z,13.20
2023-05-10T20:51:02.835Z,13.20
2023-05-10T20:53:30.930Z,13.20
2023-05-10T20:55:58.690Z,13.10
2023-05-10T20:58:27.827Z,13.10
2023-05-10T21:00:55.638Z,13.10
2023-05-10T21:03:23.394Z,13.10
2023-05-10T21:05:51.173Z,13.10
2023-05-10T21:08:19.125Z,13.10
2023-05-10T21:10:47.135Z,13.10
2023-05-10T21:13:14.918Z,13.10
2023-05-10T21:15:43.993Z,13.10
2023-05-10T21:18:11.768Z,13.00
2023-05-10T21:20:39.542Z,13.10
2023-05-10T21:23:07.318Z,13.10
2023-05-10T21:25:35.502Z,13.00
2023-05-10T21:28:03.278Z,13.00
2023-05-10T21:30:30.995Z,12.90
2023-05-10T21:33:01.617Z,12.90
2023-05-10T21:35:30.239Z,12.90
2023-05-10T21:37:58.276Z,12.90
2023-05-10T21:40:26.032Z,12.90
2023-05-10T21:42:53.783Z,12.90
2023-05-10T21:45:21.674Z,12.90
2023-05-10T21:47:49.616Z,12.90
2023-05-10T21:50:19.104Z,12.80
2023-05-10T21:52:47.390Z,12.80
2023-05-10T21:55:16.079Z,12.80
2023-05-10T21:57:44.176Z,12.80
2023-05-10T22:00:13.492Z,12.80
2023-05-10T22:02:41.356Z,12.80
2023-05-10T22:05:09.888Z,12.80
2023-05-10T22:07:39.029Z,12.80
2023-05-10T22:10:08.044Z,12.70
2023-05-10T22:12:35.926Z,12.60
2023-05-10T22:15:09.968Z,12.70
2023-05-10T22:17:39.782Z,12.60
2023-05-10T22:20:09.306Z,12.60
2023-05-10T22:22:37.537Z,12.60
2023-05-10T22:25:08.225Z,12.60
2023-05-10T22:27:36.103Z,12.60
2023-05-10T22:30:04.733Z,12.60
2023-05-10T22:32:32.879Z,12.60
2023-05-10T22:35:00.653Z,12.60
2023-05-10T22:37:28.375Z,12.60
2023-05-10T22:39:56.303Z,12.60
2023-05-10T22:42:25.470Z,12.60
2023-05-10T22:44:53.409Z,12.50
2023-05-10T22:47:21.329Z,12.50
2023-05-10T22:49:49.064Z,12.50
2023-05-10T22:52:16.825Z,12.50
2023-05-10T22:54:45.008Z,12.40
2023-05-10T22:57:12.812Z,12.40
2023-05-10T23:02:23.882Z,12.40
2023-05-10T23:04:51.713Z,12.40
2023-05-10T23:07:19.871Z,12.40
2023-05-10T23:09:48.702Z,12.40
2023-05-10T23:12:16.789Z,12.40
2023-05-10T23:14:46.211Z,12.40
2023-05-10T23:17:13.986Z,12.30
2023-05-10T23:19:43.085Z,12.30
2023-05-10T23:22:10.925Z,12.10
2023-05-10T23:24:39.098Z,12.20
2023-05-10T23:27:06.887Z,12.20
2023-05-10T23:29:34.748Z,12.20
2023-05-10T23:32:02.619Z,12.30
2023-05-10T23:34:30.562Z,12.20
2023-05-10T23:36:59.716Z,12.20
2023-05-10T23:39:27.539Z,12.20
2023-05-10T23:41:55.610Z,12.20
2023-05-10T23:44:23.445Z,12.10
2023-05-10T23:46:51.254Z,12.10
2023-05-10T23:49:19.128Z,12.10
2023-05-10T23:51:46.987Z,12.10
2023-05-10T23:54:16.097Z,12.10
2023-05-10T23:56:43.981Z,12.10
2023-05-10T23:59:11.729Z,12.10
